sensor_id;sensor_type;location;lat;lon;timestamp;P1;durP1;ratioP1;P2;durP2;ratioP2
29026;SDS011;16120;48.608;9.092;2024-02-28T00:02:35;113.70;;;9.80;;
29026;SDS011;16120;48.608;9.092;2024-02-28T00:06:31;112.80;;;9.07;;
29026;SDS011;16120;48.608;9.092;2024-02-28T00:10:26;113.10;;;9.37;;
29026;SDS011;16120;48.608;9.092;2024-02-28T00:14:21;112.67;;;8.63;;
29026;SDS011;16120;48.608;9.092;2024-02-28T00:18:17;113.87;;;9.10;;
29026;SDS011;16120;48.608;9.092;2024-02-28T00:22:13;112.00;;;8.93;;
29026;SDS011;16120;48.608;9.092;2024-02-28T00:26:08;112.27;;;9.50;;
29026;SDS011;16120;48.608;9.092;2024-02-28T00:30:04;113.87;;;9.97;;
29026;SDS011;16120;48.608;9.092;2024-02-28T00:33:59;114.10;;;9.50;;
29026;SDS011;16120;48.608;9.092;2024-02-28T00:37:56;113.13;;;9.27;;
29026;SDS011;16120;48.608;9.092;2024-02-28T00:41:51;113.00;;;9.50;;
29026;SDS011;16120;48.608;9.092;2024-02-28T00:45:46;113.93;;;9.60;;
29026;SDS011;16120;48.608;9.092;2024-02-28T00:49:41;113.53;;;9.10;;
29026;SDS011;16120;48.608;9.092;2024-02-28T00:53:38;113.10;;;9.30;;
29026;SDS011;16120;48.608;9.092;2024-02-28T00:57:33;113.77;;;9.20;;
29026;SDS011;16120;48.608;9.092;2024-02-28T01:01:28;113.77;;;9.50;;
29026;SDS011;16120;48.608;9.092;2024-02-28T01:05:23;113.57;;;8.87;;
29026;SDS011;16120;48.608;9.092;2024-02-28T01:09:20;113.97;;;9.37;;
29026;SDS011;16120;48.608;9.092;2024-02-28T01:13:15;114.17;;;10.00;;
29026;SDS011;16120;48.608;9.092;2024-02-28T01:17:10;113.30;;;9.37;;
29026;SDS011;16120;48.608;9.092;2024-02-28T01:21:05;113.07;;;9.53;;
29026;SDS011;16120;48.608;9.092;2024-02-28T01:25:02;112.70;;;9.40;;
29026;SDS011;16120;48.608;9.092;2024-02-28T01:28:57;113.00;;;9.20;;
29026;SDS011;16120;48.608;9.092;2024-02-28T01:32:52;112.35;;;9.57;;
29026;SDS011;16120;48.608;9.092;2024-02-28T01:36:47;114.10;;;8.93;;
29026;SDS011;16120;48.608;9.092;2024-02-28T01:40:45;113.47;;;9.30;;
29026;SDS011;16120;48.608;9.092;2024-02-28T01:44:41;113.67;;;9.97;;
29026;SDS011;16120;48.608;9.092;2024-02-28T01:48:38;113.57;;;8.90;;
29026;SDS011;16120;48.608;9.092;2024-02-28T01:52:33;113.27;;;9.80;;
29026;SDS011;16120;48.608;9.092;2024-02-28T01:56:30;112.87;;;9.70;;
29026;SDS011;16120;48.608;9.092;2024-02-28T02:00:25;113.73;;;9.50;;
29026;SDS011;16120;48.608;9.092;2024-02-28T02:04:22;114.30;;;9.47;;
29026;SDS011;16120;48.608;9.092;2024-02-28T02:08:17;113.37;;;9.23;;
29026;SDS011;16120;48.608;9.092;2024-02-28T02:12:14;113.00;;;9.60;;
29026;SDS011;16120;48.608;9.092;2024-02-28T02:16:09;113.40;;;9.67;;
29026;SDS011;16120;48.608;9.092;2024-02-28T02:20:05;113.50;;;9.97;;
29026;SDS011;16120;48.608;9.092;2024-02-28T02:24:01;113.87;;;9.47;;
29026;SDS011;16120;48.608;9.092;2024-02-28T02:27:57;113.57;;;10.10;;
29026;SDS011;16120;48.608;9.092;2024-02-28T02:31:52;114.00;;;9.93;;
29026;SDS011;16120;48.608;9.092;2024-02-28T02:35:47;113.30;;;9.37;;
29026;SDS011;16120;48.608;9.092;2024-02-28T02:39:43;113.30;;;9.90;;
29026;SDS011;16120;48.608;9.092;2024-02-28T02:43:39;114.07;;;9.70;;
29026;SDS011;16120;48.608;9.092;2024-02-28T02:47:34;113.73;;;9.23;;
29026;SDS011;16120;48.608;9.092;2024-02-28T02:51:29;113.50;;;9.80;;
29026;SDS011;16120;48.608;9.092;2024-02-28T02:55:26;114.20;;;9.70;;
29026;SDS011;16120;48.608;9.092;2024-02-28T02:59:21;114.10;;;10.10;;
29026;SDS011;16120;48.608;9.092;2024-02-28T03:03:16;113.00;;;9.87;;
29026;SDS011;16120;48.608;9.092;2024-02-28T03:07:11;113.27;;;10.20;;
29026;SDS011;16120;48.608;9.092;2024-02-28T03:11:08;113.50;;;9.87;;
29026;SDS011;16120;48.608;9.092;2024-02-28T03:15:03;113.87;;;9.73;;
29026;SDS011;16120;48.608;9.092;2024-02-28T03:18:58;114.10;;;9.97;;
29026;SDS011;16120;48.608;9.092;2024-02-28T03:22:53;113.77;;;10.00;;
29026;SDS011;16120;48.608;9.092;2024-02-28T03:26:50;113.90;;;10.23;;
29026;SDS011;16120;48.608;9.092;2024-02-28T03:30:45;113.90;;;10.20;;
29026;SDS011;16120;48.608;9.092;2024-02-28T03:34:40;113.97;;;10.33;;
29026;SDS011;16120;48.608;9.092;2024-02-28T03:38:36;113.10;;;9.50;;
29026;SDS011;16120;48.608;9.092;2024-02-28T03:42:32;113.90;;;10.53;;
29026;SDS011;16120;48.608;9.092;2024-02-28T03:46:27;114.63;;;10.63;;
29026;SDS011;16120;48.608;9.092;2024-02-28T03:50:22;113.43;;;9.67;;
29026;SDS011;16120;48.608;9.092;2024-02-28T03:54:18;113.00;;;9.70;;
29026;SDS011;16120;48.608;9.092;2024-02-28T03:58:14;113.17;;;9.57;;
29026;SDS011;16120;48.608;9.092;2024-02-28T04:02:09;112.40;;;9.43;;
29026;SDS011;16120;48.608;9.092;2024-02-28T04:06:05;113.07;;;9.93;;
29026;SDS011;16120;48.608;9.092;2024-02-28T04:10:00;113.90;;;10.10;;
29026;SDS011;16120;48.608;9.092;2024-02-28T04:13:56;114.40;;;9.97;;
29026;SDS011;16120;48.608;9.092;2024-02-28T04:17:52;114.57;;;10.23;;
29026;SDS011;16120;48.608;9.092;2024-02-28T04:21:47;113.57;;;9.90;;
29026;SDS011;16120;48.608;9.092;2024-02-28T04:25:42;113.30;;;9.60;;
29026;SDS011;16120;48.608;9.092;2024-02-28T04:29:39;113.32;;;9.63;;
29026;SDS011;16120;48.608;9.092;2024-02-28T04:33:34;114.80;;;11.30;;
29026;SDS011;16120;48.608;9.092;2024-02-28T04:37:29;113.30;;;10.80;;
29026;SDS011;16120;48.608;9.092;2024-02-28T04:41:24;113.70;;;10.20;;
29026;SDS011;16120;48.608;9.092;2024-02-28T04:45:21;114.57;;;10.03;;
29026;SDS011;16120;48.608;9.092;2024-02-28T04:49:16;113.37;;;10.30;;
29026;SDS011;16120;48.608;9.092;2024-02-28T04:53:11;114.47;;;9.53;;
29026;SDS011;16120;48.608;9.092;2024-02-28T04:57:06;113.80;;;9.47;;
29026;SDS011;16120;48.608;9.092;2024-02-28T05:01:03;113.90;;;10.13;;
29026;SDS011;16120;48.608;9.092;2024-02-28T05:04:58;113.30;;;9.80;;
29026;SDS011;16120;48.608;9.092;2024-02-28T05:08:53;114.20;;;9.60;;
29026;SDS011;16120;48.608;9.092;2024-02-28T05:12:48;113.77;;;9.73;;
29026;SDS011;16120;48.608;9.092;2024-02-28T05:16:46;114.80;;;9.90;;
29026;SDS011;16120;48.608;9.092;2024-02-28T05:20:41;113.67;;;9.57;;
29026;SDS011;16120;48.608;9.092;2024-02-28T05:24:36;114.17;;;10.07;;
29026;SDS011;16120;48.608;9.092;2024-02-28T05:28:32;114.35;;;9.52;;
29026;SDS011;16120;48.608;9.092;2024-02-28T05:32:28;113.30;;;10.20;;
29026;SDS011;16120;48.608;9.092;2024-02-28T05:36:24;114.90;;;10.10;;
29026;SDS011;16120;48.608;9.092;2024-02-28T05:40:19;114.40;;;10.40;;
29026;SDS011;16120;48.608;9.092;2024-02-28T05:44:14;114.13;;;9.80;;
29026;SDS011;16120;48.608;9.092;2024-02-28T05:48:11;114.40;;;9.87;;
29026;SDS011;16120;48.608;9.092;2024-02-28T05:52:06;114.77;;;9.70;;
29026;SDS011;16120;48.608;9.092;2024-02-28T05:56:01;113.70;;;9.57;;
29026;SDS011;16120;48.608;9.092;2024-02-28T05:59:56;114.07;;;9.67;;
29026;SDS011;16120;48.608;9.092;2024-02-28T06:03:53;113.97;;;10.20;;
29026;SDS011;16120;48.608;9.092;2024-02-28T06:07:48;114.27;;;9.57;;
29026;SDS011;16120;48.608;9.092;2024-02-28T06:11:43;114.00;;;9.60;;
29026;SDS011;16120;48.608;9.092;2024-02-28T06:15:39;114.38;;;9.75;;
29026;SDS011;16120;48.608;9.092;2024-02-28T06:19:35;113.37;;;9.20;;
29026;SDS011;16120;48.608;9.092;2024-02-28T06:23:30;113.70;;;9.60;;
29026;SDS011;16120;48.608;9.092;2024-02-28T06:27:25;114.17;;;9.93;;
29026;SDS011;16120;48.608;9.092;2024-02-28T06:31:21;114.37;;;9.67;;
29026;SDS011;16120;48.608;9.092;2024-02-28T06:35:17;113.70;;;9.70;;
29026;SDS011;16120;48.608;9.092;2024-02-28T06:39:12;113.50;;;9.50;;
29026;SDS011;16120;48.608;9.092;2024-02-28T06:43:08;113.97;;;9.70;;
29026;SDS011;16120;48.608;9.092;2024-02-28T06:47:03;113.50;;;9.77;;
29026;SDS011;16120;48.608;9.092;2024-02-28T06:50:59;113.40;;;9.80;;
29026;SDS011;16120;48.608;9.092;2024-02-28T06:54:55;114.03;;;9.90;;
29026;SDS011;16120;48.608;9.092;2024-02-28T06:58:50;114.10;;;9.73;;
29026;SDS011;16120;48.608;9.092;2024-02-28T07:02:45;117.00;;;10.10;;
29026;SDS011;16120;48.608;9.092;2024-02-28T07:06:42;113.73;;;9.73;;
29026;SDS011;16120;48.608;9.092;2024-02-28T07:10:37;114.10;;;9.97;;
29026;SDS011;16120;48.608;9.092;2024-02-28T07:14:32;113.40;;;9.60;;
29026;SDS011;16120;48.608;9.092;2024-02-28T07:18:27;114.07;;;9.83;;
29026;SDS011;16120;48.608;9.092;2024-02-28T07:22:24;113.90;;;9.80;;
29026;SDS011;16120;48.608;9.092;2024-02-28T07:26:19;114.17;;;10.00;;
29026;SDS011;16120;48.608;9.092;2024-02-28T07:30:14;114.17;;;10.27;;
29026;SDS011;16120;48.608;9.092;2024-02-28T07:34:09;113.27;;;9.40;;
29026;SDS011;16120;48.608;9.092;2024-02-28T07:38:06;113.10;;;9.00;;
29026;SDS011;16120;48.608;9.092;2024-02-28T07:42:01;113.20;;;9.43;;
29026;SDS011;16120;48.608;9.092;2024-02-28T07:45:56;113.73;;;9.60;;
29026;SDS011;16120;48.608;9.092;2024-02-28T07:49:51;114.33;;;9.93;;
29026;SDS011;16120;48.608;9.092;2024-02-28T07:53:48;113.77;;;9.80;;
29026;SDS011;16120;48.608;9.092;2024-02-28T07:57:43;113.07;;;9.27;;
29026;SDS011;16120;48.608;9.092;2024-02-28T08:01:38;114.27;;;10.07;;
29026;SDS011;16120;48.608;9.092;2024-02-28T08:05:33;114.27;;;10.03;;
29026;SDS011;16120;48.608;9.092;2024-02-28T08:09:30;113.33;;;9.50;;
29026;SDS011;16120;48.608;9.092;2024-02-28T08:13:25;113.87;;;9.63;;
29026;SDS011;16120;48.608;9.092;2024-02-28T08:17:20;112.90;;;9.40;;
29026;SDS011;16120;48.608;9.092;2024-02-28T08:21:15;112.67;;;9.23;;
29026;SDS011;16120;48.608;9.092;2024-02-28T08:25:12;113.57;;;9.53;;
29026;SDS011;16120;48.608;9.092;2024-02-28T08:29:07;113.97;;;9.60;;
29026;SDS011;16120;48.608;9.092;2024-02-28T08:33:03;114.10;;;9.60;;
29026;SDS011;16120;48.608;9.092;2024-02-28T08:36:58;113.77;;;9.03;;
29026;SDS011;16120;48.608;9.092;2024-02-28T08:40:55;112.53;;;9.27;;
29026;SDS011;16120;48.608;9.092;2024-02-28T08:44:50;113.50;;;9.77;;
29026;SDS011;16120;48.608;9.092;2024-02-28T08:48:45;113.27;;;9.53;;
29026;SDS011;16120;48.608;9.092;2024-02-28T08:52:40;113.20;;;9.20;;
29026;SDS011;16120;48.608;9.092;2024-02-28T08:56:37;113.70;;;9.50;;
29026;SDS011;16120;48.608;9.092;2024-02-28T09:00:32;113.27;;;10.00;;
29026;SDS011;16120;48.608;9.092;2024-02-28T09:04:27;112.87;;;9.43;;
29026;SDS011;16120;48.608;9.092;2024-02-28T09:08:22;113.60;;;9.57;;
29026;SDS011;16120;48.608;9.092;2024-02-28T09:12:19;113.10;;;9.27;;
29026;SDS011;16120;48.608;9.092;2024-02-28T09:16:14;112.60;;;9.00;;
29026;SDS011;16120;48.608;9.092;2024-02-28T09:20:10;113.37;;;9.00;;
29026;SDS011;16120;48.608;9.092;2024-02-28T09:24:05;113.97;;;9.80;;
29026;SDS011;16120;48.608;9.092;2024-02-28T09:28:02;112.43;;;9.10;;
29026;SDS011;16120;48.608;9.092;2024-02-28T09:31:57;113.43;;;9.63;;
29026;SDS011;16120;48.608;9.092;2024-02-28T09:35:52;113.17;;;9.50;;
29026;SDS011;16120;48.608;9.092;2024-02-28T09:39:47;112.50;;;8.80;;
29026;SDS011;16120;48.608;9.092;2024-02-28T09:43:44;113.27;;;9.37;;
29026;SDS011;16120;48.608;9.092;2024-02-28T09:47:39;112.70;;;8.63;;
29026;SDS011;16120;48.608;9.092;2024-02-28T09:51:35;112.80;;;9.53;;
29026;SDS011;16120;48.608;9.092;2024-02-28T09:55:30;113.17;;;9.97;;
29026;SDS011;16120;48.608;9.092;2024-02-28T09:59:27;112.17;;;8.73;;
29026;SDS011;16120;48.608;9.092;2024-02-28T10:03:22;111.67;;;8.67;;
29026;SDS011;16120;48.608;9.092;2024-02-28T10:07:18;111.70;;;8.70;;
29026;SDS011;16120;48.608;9.092;2024-02-28T10:11:17;112.17;;;8.73;;
29026;SDS011;16120;48.608;9.092;2024-02-28T10:15:13;112.73;;;9.87;;
29026;SDS011;16120;48.608;9.092;2024-02-28T10:19:08;112.30;;;9.13;;
29026;SDS011;16120;48.608;9.092;2024-02-28T10:23:04;112.50;;;9.03;;
29026;SDS011;16120;48.608;9.092;2024-02-28T10:27:00;112.40;;;8.63;;
29026;SDS011;16120;48.608;9.092;2024-02-28T10:30:57;111.97;;;8.97;;
29026;SDS011;16120;48.608;9.092;2024-02-28T10:34:52;112.07;;;9.00;;
29026;SDS011;16120;48.608;9.092;2024-02-28T10:38:48;112.07;;;9.00;;
29026;SDS011;16120;48.608;9.092;2024-02-28T10:42:43;112.17;;;8.93;;
29026;SDS011;16120;48.608;9.092;2024-02-28T10:46:40;111.77;;;9.00;;
29026;SDS011;16120;48.608;9.092;2024-02-28T10:50:35;110.90;;;8.50;;
29026;SDS011;16120;48.608;9.092;2024-02-28T10:54:31;111.17;;;8.90;;
29026;SDS011;16120;48.608;9.092;2024-02-28T10:58:26;111.27;;;9.40;;
29026;SDS011;16120;48.608;9.092;2024-02-28T11:02:25;111.30;;;8.60;;
29026;SDS011;16120;48.608;9.092;2024-02-28T11:06:21;111.20;;;8.80;;
29026;SDS011;16120;48.608;9.092;2024-02-28T11:10:16;111.47;;;8.80;;
29026;SDS011;16120;48.608;9.092;2024-02-28T11:14:14;111.57;;;8.57;;
29026;SDS011;16120;48.608;9.092;2024-02-28T11:18:11;111.30;;;9.00;;
29026;SDS011;16120;48.608;9.092;2024-02-28T11:22:06;112.17;;;9.37;;
29026;SDS011;16120;48.608;9.092;2024-02-28T11:26:01;111.70;;;8.90;;
29026;SDS011;16120;48.608;9.092;2024-02-28T11:29:57;111.37;;;8.37;;
29026;SDS011;16120;48.608;9.092;2024-02-28T11:33:53;110.90;;;9.00;;
29026;SDS011;16120;48.608;9.092;2024-02-28T11:37:48;111.27;;;9.20;;
29026;SDS011;16120;48.608;9.092;2024-02-28T11:41:44;111.57;;;8.47;;
29026;SDS011;16120;48.608;9.092;2024-02-28T11:45:39;111.67;;;8.73;;
29026;SDS011;16120;48.608;9.092;2024-02-28T11:49:36;111.40;;;8.53;;
29026;SDS011;16120;48.608;9.092;2024-02-28T11:53:31;111.20;;;8.37;;
29026;SDS011;16120;48.608;9.092;2024-02-28T11:57:26;111.27;;;8.20;;
29026;SDS011;16120;48.608;9.092;2024-02-28T12:01:32;111.03;;;8.40;;
29026;SDS011;16120;48.608;9.092;2024-02-28T12:05:28;110.50;;;8.47;;
29026;SDS011;16120;48.608;9.092;2024-02-28T12:09:24;110.57;;;8.30;;
29026;SDS011;16120;48.608;9.092;2024-02-28T12:13:19;109.78;;;8.00;;
29026;SDS011;16120;48.608;9.092;2024-02-28T12:17:14;110.37;;;8.23;;
29026;SDS011;16120;48.608;9.092;2024-02-28T12:21:11;110.72;;;9.00;;
29026;SDS011;16120;48.608;9.092;2024-02-28T12:25:06;110.50;;;8.60;;
29026;SDS011;16120;48.608;9.092;2024-02-28T12:29:01;110.87;;;8.40;;
29026;SDS011;16120;48.608;9.092;2024-02-28T12:32:57;110.27;;;8.20;;
29026;SDS011;16120;48.608;9.092;2024-02-28T12:36:53;110.67;;;8.60;;
29026;SDS011;16120;48.608;9.092;2024-02-28T12:40:48;110.40;;;8.67;;
29026;SDS011;16120;48.608;9.092;2024-02-28T12:44:43;110.53;;;8.80;;
29026;SDS011;16120;48.608;9.092;2024-02-28T12:48:39;110.47;;;9.27;;
29026;SDS011;16120;48.608;9.092;2024-02-28T12:52:36;109.90;;;8.37;;
29026;SDS011;16120;48.608;9.092;2024-02-28T12:56:31;110.57;;;8.90;;
29026;SDS011;16120;48.608;9.092;2024-02-28T13:00:26;110.07;;;8.90;;
29026;SDS011;16120;48.608;9.092;2024-02-28T13:04:21;110.40;;;8.67;;
29026;SDS011;16120;48.608;9.092;2024-02-28T13:08:18;110.47;;;8.70;;
29026;SDS011;16120;48.608;9.092;2024-02-28T13:12:14;110.97;;;8.97;;
29026;SDS011;16120;48.608;9.092;2024-02-28T13:16:09;110.50;;;8.90;;
29026;SDS011;16120;48.608;9.092;2024-02-28T13:20:05;112.00;;;9.10;;
29026;SDS011;16120;48.608;9.092;2024-02-28T13:24:01;110.67;;;9.37;;
29026;SDS011;16120;48.608;9.092;2024-02-28T13:27:57;111.97;;;9.73;;
29026;SDS011;16120;48.608;9.092;2024-02-28T13:31:52;112.67;;;10.60;;
29026;SDS011;16120;48.608;9.092;2024-02-28T13:35:47;111.80;;;9.10;;
29026;SDS011;16120;48.608;9.092;2024-02-28T13:39:44;112.20;;;10.60;;
29026;SDS011;16120;48.608;9.092;2024-02-28T13:43:39;112.93;;;9.40;;
29026;SDS011;16120;48.608;9.092;2024-02-28T13:47:34;112.27;;;9.47;;
29026;SDS011;16120;48.608;9.092;2024-02-28T13:51:29;112.20;;;8.93;;
29026;SDS011;16120;48.608;9.092;2024-02-28T13:55:26;112.78;;;9.63;;
29026;SDS011;16120;48.608;9.092;2024-02-28T13:59:21;112.17;;;8.70;;
29026;SDS011;16120;48.608;9.092;2024-02-28T14:03:16;113.70;;;12.00;;
29026;SDS011;16120;48.608;9.092;2024-02-28T14:07:11;112.67;;;9.60;;
29026;SDS011;16120;48.608;9.092;2024-02-28T14:11:08;111.90;;;9.30;;
29026;SDS011;16120;48.608;9.092;2024-02-28T14:15:03;113.50;;;11.17;;
29026;SDS011;16120;48.608;9.092;2024-02-28T14:18:59;112.77;;;9.43;;
29026;SDS011;16120;48.608;9.092;2024-02-28T14:22:54;112.90;;;10.37;;
29026;SDS011;16120;48.608;9.092;2024-02-28T14:26:51;112.77;;;9.90;;
29026;SDS011;16120;48.608;9.092;2024-02-28T14:30:46;113.57;;;10.83;;
29026;SDS011;16120;48.608;9.092;2024-02-28T14:34:41;111.88;;;8.88;;
29026;SDS011;16120;48.608;9.092;2024-02-28T14:38:36;111.40;;;8.87;;
29026;SDS011;16120;48.608;9.092;2024-02-28T14:42:33;112.80;;;9.00;;
29026;SDS011;16120;48.608;9.092;2024-02-28T14:46:28;112.60;;;9.17;;
29026;SDS011;16120;48.608;9.092;2024-02-28T14:50:23;112.30;;;9.00;;
29026;SDS011;16120;48.608;9.092;2024-02-28T14:54:18;112.60;;;9.70;;
29026;SDS011;16120;48.608;9.092;2024-02-28T14:58:15;113.00;;;9.17;;
29026;SDS011;16120;48.608;9.092;2024-02-28T15:02:11;112.33;;;9.00;;
29026;SDS011;16120;48.608;9.092;2024-02-28T15:06:06;112.53;;;9.03;;
29026;SDS011;16120;48.608;9.092;2024-02-28T15:10:01;112.47;;;9.30;;
29026;SDS011;16120;48.608;9.092;2024-02-28T15:13:58;112.13;;;9.13;;
29026;SDS011;16120;48.608;9.092;2024-02-28T15:17:53;112.30;;;9.27;;
29026;SDS011;16120;48.608;9.092;2024-02-28T15:21:48;111.90;;;9.00;;
29026;SDS011;16120;48.608;9.092;2024-02-28T15:25:44;112.57;;;8.97;;
29026;SDS011;16120;48.608;9.092;2024-02-28T15:29:40;112.37;;;9.00;;
29026;SDS011;16120;48.608;9.092;2024-02-28T15:33:35;111.37;;;9.17;;
29026;SDS011;16120;48.608;9.092;2024-02-28T15:37:30;112.93;;;10.20;;
29026;SDS011;16120;48.608;9.092;2024-02-28T15:41:26;112.27;;;9.33;;
29026;SDS011;16120;48.608;9.092;2024-02-28T15:45:22;112.57;;;9.90;;
29026;SDS011;16120;48.608;9.092;2024-02-28T15:49:17;112.07;;;9.07;;
29026;SDS011;16120;48.608;9.092;2024-02-28T15:53:13;112.67;;;9.50;;
29026;SDS011;16120;48.608;9.092;2024-02-28T15:57:08;112.90;;;9.63;;
29026;SDS011;16120;48.608;9.092;2024-02-28T16:01:04;113.60;;;10.60;;
29026;SDS011;16120;48.608;9.092;2024-02-28T16:05:00;113.07;;;9.60;;
29026;SDS011;16120;48.608;9.092;2024-02-28T16:08:55;112.73;;;9.20;;
29026;SDS011;16120;48.608;9.092;2024-02-28T16:12:50;113.70;;;10.03;;
29026;SDS011;16120;48.608;9.092;2024-02-28T16:16:46;112.47;;;9.80;;
29026;SDS011;16120;48.608;9.092;2024-02-28T16:20:42;112.87;;;9.50;;
29026;SDS011;16120;48.608;9.092;2024-02-28T16:24:37;113.07;;;9.77;;
29026;SDS011;16120;48.608;9.092;2024-02-28T16:28:32;113.17;;;10.20;;
29026;SDS011;16120;48.608;9.092;2024-02-28T16:32:29;113.07;;;9.27;;
29026;SDS011;16120;48.608;9.092;2024-02-28T16:36:24;112.70;;;9.93;;
29026;SDS011;16120;48.608;9.092;2024-02-28T16:40:19;113.57;;;9.80;;
29026;SDS011;16120;48.608;9.092;2024-02-28T16:44:14;113.40;;;10.23;;
29026;SDS011;16120;48.608;9.092;2024-02-28T16:48:11;113.83;;;10.20;;
29026;SDS011;16120;48.608;9.092;2024-02-28T16:52:06;113.07;;;9.30;;
29026;SDS011;16120;48.608;9.092;2024-02-28T16:56:01;112.70;;;9.13;;
29026;SDS011;16120;48.608;9.092;2024-02-28T16:59:56;113.30;;;9.40;;
29026;SDS011;16120;48.608;9.092;2024-02-28T17:03:53;113.30;;;9.70;;
29026;SDS011;16120;48.608;9.092;2024-02-28T17:07:48;113.63;;;9.40;;
29026;SDS011;16120;48.608;9.092;2024-02-28T17:11:43;113.47;;;9.73;;
29026;SDS011;16120;48.608;9.092;2024-02-28T17:15:39;113.77;;;10.17;;
29026;SDS011;16120;48.608;9.092;2024-02-28T17:19:35;113.07;;;10.13;;
29026;SDS011;16120;48.608;9.092;2024-02-28T17:23:30;113.17;;;9.50;;
29026;SDS011;16120;48.608;9.092;2024-02-28T17:27:26;113.03;;;9.20;;
29026;SDS011;16120;48.608;9.092;2024-02-28T17:31:21;113.67;;;9.50;;
29026;SDS011;16120;48.608;9.092;2024-02-28T17:35:17;112.97;;;9.10;;
29026;SDS011;16120;48.608;9.092;2024-02-28T17:39:13;113.83;;;9.50;;
29026;SDS011;16120;48.608;9.092;2024-02-28T17:43:08;113.00;;;10.02;;
29026;SDS011;16120;48.608;9.092;2024-02-28T17:47:03;113.97;;;9.57;;
29026;SDS011;16120;48.608;9.092;2024-02-28T17:51:00;113.50;;;9.60;;
29026;SDS011;16120;48.608;9.092;2024-02-28T17:54:55;113.57;;;9.50;;
29026;SDS011;16120;48.608;9.092;2024-02-28T17:58:51;112.93;;;9.40;;
29026;SDS011;16120;48.608;9.092;2024-02-28T18:02:46;113.20;;;9.50;;
29026;SDS011;16120;48.608;9.092;2024-02-28T18:06:42;113.87;;;9.60;;
29026;SDS011;16120;48.608;9.092;2024-02-28T18:10:37;113.67;;;9.90;;
29026;SDS011;16120;48.608;9.092;2024-02-28T18:14:33;113.90;;;9.90;;
29026;SDS011;16120;48.608;9.092;2024-02-28T18:18:28;114.80;;;10.40;;
29026;SDS011;16120;48.608;9.092;2024-02-28T18:22:24;113.60;;;9.63;;
29026;SDS011;16120;48.608;9.092;2024-02-28T18:26:19;113.40;;;9.67;;
29026;SDS011;16120;48.608;9.092;2024-02-28T18:30:15;114.50;;;10.77;;
29026;SDS011;16120;48.608;9.092;2024-02-28T18:34:10;113.57;;;9.80;;
29026;SDS011;16120;48.608;9.092;2024-02-28T18:38:07;113.80;;;10.00;;
29026;SDS011;16120;48.608;9.092;2024-02-28T18:42:02;114.47;;;9.70;;
29026;SDS011;16120;48.608;9.092;2024-02-28T18:45:57;112.50;;;9.30;;
29026;SDS011;16120;48.608;9.092;2024-02-28T18:49:52;114.53;;;10.40;;
29026;SDS011;16120;48.608;9.092;2024-02-28T18:53:49;113.67;;;9.97;;
29026;SDS011;16120;48.608;9.092;2024-02-28T18:57:44;114.20;;;10.40;;
29026;SDS011;16120;48.608;9.092;2024-02-28T19:01:39;113.87;;;9.70;;
29026;SDS011;16120;48.608;9.092;2024-02-28T19:05:34;114.37;;;9.73;;
29026;SDS011;16120;48.608;9.092;2024-02-28T19:09:31;113.80;;;10.30;;
29026;SDS011;16120;48.608;9.092;2024-02-28T19:13:26;114.00;;;9.83;;
29026;SDS011;16120;48.608;9.092;2024-02-28T19:17:21;114.20;;;9.67;;
29026;SDS011;16120;48.608;9.092;2024-02-28T19:21:16;113.47;;;9.73;;
29026;SDS011;16120;48.608;9.092;2024-02-28T19:25:13;113.77;;;9.33;;
29026;SDS011;16120;48.608;9.092;2024-02-28T19:29:08;113.40;;;9.20;;
29026;SDS011;16120;48.608;9.092;2024-02-28T19:33:04;113.60;;;9.37;;
29026;SDS011;16120;48.608;9.092;2024-02-28T19:36:59;114.30;;;10.33;;
29026;SDS011;16120;48.608;9.092;2024-02-28T19:40:55;113.72;;;10.32;;
29026;SDS011;16120;48.608;9.092;2024-02-28T19:44:51;113.33;;;9.40;;
29026;SDS011;16120;48.608;9.092;2024-02-28T19:48:46;113.67;;;9.40;;
29026;SDS011;16120;48.608;9.092;2024-02-28T19:52:41;113.70;;;9.37;;
29026;SDS011;16120;48.608;9.092;2024-02-28T19:56:37;113.67;;;9.10;;
29026;SDS011;16120;48.608;9.092;2024-02-28T20:00:33;112.27;;;8.97;;
29026;SDS011;16120;48.608;9.092;2024-02-28T20:04:28;113.90;;;9.45;;
29026;SDS011;16120;48.608;9.092;2024-02-28T20:08:23;113.77;;;9.30;;
29026;SDS011;16120;48.608;9.092;2024-02-28T20:12:19;113.90;;;10.20;;
29026;SDS011;16120;48.608;9.092;2024-02-28T20:16:15;113.60;;;10.00;;
29026;SDS011;16120;48.608;9.092;2024-02-28T20:20:10;112.97;;;8.90;;
29026;SDS011;16120;48.608;9.092;2024-02-28T20:24:05;113.77;;;9.10;;
29026;SDS011;16120;48.608;9.092;2024-02-28T20:28:02;113.30;;;9.40;;
29026;SDS011;16120;48.608;9.092;2024-02-28T20:31:57;114.30;;;10.23;;
29026;SDS011;16120;48.608;9.092;2024-02-28T20:35:52;113.70;;;9.83;;
29026;SDS011;16120;48.608;9.092;2024-02-28T20:39:47;112.80;;;9.50;;
29026;SDS011;16120;48.608;9.092;2024-02-28T20:43:44;113.97;;;9.90;;
29026;SDS011;16120;48.608;9.092;2024-02-28T20:47:39;113.90;;;10.00;;
29026;SDS011;16120;48.608;9.092;2024-02-28T20:51:34;114.07;;;10.27;;
29026;SDS011;16120;48.608;9.092;2024-02-28T20:55:29;114.07;;;9.40;;
29026;SDS011;16120;48.608;9.092;2024-02-28T20:59:26;112.93;;;9.33;;
29026;SDS011;16120;48.608;9.092;2024-02-28T21:03:21;113.20;;;9.30;;
29026;SDS011;16120;48.608;9.092;2024-02-28T21:07:16;113.57;;;9.17;;
29026;SDS011;16120;48.608;9.092;2024-02-28T21:11:12;113.87;;;9.87;;
29026;SDS011;16120;48.608;9.092;2024-02-28T21:15:08;113.23;;;9.70;;
29026;SDS011;16120;48.608;9.092;2024-02-28T21:19:04;113.83;;;9.40;;
29026;SDS011;16120;48.608;9.092;2024-02-28T21:22:59;113.53;;;9.30;;
29026;SDS011;16120;48.608;9.092;2024-02-28T21:26:54;116.97;;;9.40;;
29026;SDS011;16120;48.608;9.092;2024-02-28T21:30:50;114.00;;;9.30;;
29026;SDS011;16120;48.608;9.092;2024-02-28T21:34:46;114.50;;;9.77;;
29026;SDS011;16120;48.608;9.092;2024-02-28T21:38:41;113.83;;;9.20;;
29026;SDS011;16120;48.608;9.092;2024-02-28T21:42:36;114.47;;;9.60;;
29026;SDS011;16120;48.608;9.092;2024-02-28T21:46:33;114.20;;;9.53;;
29026;SDS011;16120;48.608;9.092;2024-02-28T21:50:28;113.27;;;8.87;;
29026;SDS011;16120;48.608;9.092;2024-02-28T21:54:23;114.60;;;9.67;;
29026;SDS011;16120;48.608;9.092;2024-02-28T21:58:18;115.07;;;9.30;;
29026;SDS011;16120;48.608;9.092;2024-02-28T22:02:15;114.80;;;9.60;;
29026;SDS011;16120;48.608;9.092;2024-02-28T22:06:10;114.70;;;9.50;;
29026;SDS011;16120;48.608;9.092;2024-02-28T22:10:06;113.77;;;9.43;;
29026;SDS011;16120;48.608;9.092;2024-02-28T22:14:01;115.37;;;9.77;;
29026;SDS011;16120;48.608;9.092;2024-02-28T22:17:57;114.93;;;9.63;;
29026;SDS011;16120;48.608;9.092;2024-02-28T22:21:53;115.80;;;10.00;;
29026;SDS011;16120;48.608;9.092;2024-02-28T22:25:48;115.00;;;9.67;;
29026;SDS011;16120;48.608;9.092;2024-02-28T22:29:43;116.23;;;10.60;;
29026;SDS011;16120;48.608;9.092;2024-02-28T22:33:39;115.30;;;9.80;;
29026;SDS011;16120;48.608;9.092;2024-02-28T22:37:35;115.40;;;9.50;;
29026;SDS011;16120;48.608;9.092;2024-02-28T22:41:30;115.27;;;9.93;;
29026;SDS011;16120;48.608;9.092;2024-02-28T22:45:25;115.67;;;9.53;;
29026;SDS011;16120;48.608;9.092;2024-02-28T22:49:21;116.27;;;9.47;;
29026;SDS011;16120;48.608;9.092;2024-02-28T22:53:17;115.87;;;9.50;;